Terminal Aerodrome Forecast
Issued by NWS Cleveland, OH

Home | Current Version | Previous Version | Graphics & Text | Print | Product List | Glossary On
Versions: 1 2 3 4 5 6 7 8 9 10 11 12 13 14 15 16 17 18 19 20 21 22 23 24 25 26
000
FTUS41 KCLE 241000 AAB
TAFCAK
TAF AMD
KCAK 241020Z 2410/2506 26006KT 4SM BR OVC008
     FM241200 26008KT P6SM OVC020
     FM242100 26010KT 3SM -SN BR BKN008 OVC012=

USA.gov is the U.S. government's official web portal to all federal, state and local government web resources and services.